Time;durP1;ratioP1;P1;durP2;ratioP2;P2;SDS_P1;SDS_P2;PMS_P1;PMS_P2;Temp;Humidity;BMP_temperature;BMP_pressure;BME280_temperature;BME280_humidity;BME280_pressure;Samples;Min_cycle;Max_cycle;Signal;HPM_P1;HPM_P2
2023/09/10 00:01:16;;;;;;;19.42;10.68;;;;;;;19.60;66.88;100974.88;5068178;28;20135;-61
2023/09/10 00:03:43;;;;;;;12.27;9.80;;;;;;;19.56;66.92;100976.13;5077859;28;20056;-59
2023/09/10 00:06:11;;;;;;;11.43;10.25;;;;;;;19.53;67.08;100979.91;5078320;28;20452;-60
2023/09/10 00:08:38;;;;;;;13.68;10.00;;;;;;;19.49;67.59;100983.84;5070695;28;20102;-58
2023/09/10 00:11:06;;;;;;;12.55;10.88;;;;;;;19.45;67.44;100977.09;5081525;28;20515;-60
2023/09/10 00:13:33;;;;;;;13.73;11.32;;;;;;;19.42;68.21;100983.56;5080080;28;20139;-58
2023/09/10 00:16:01;;;;;;;18.05;11.57;;;;;;;19.38;68.30;100975.97;5063848;28;20578;-59
2023/09/10 00:18:28;;;;;;;14.27;10.32;;;;;;;19.34;68.79;100975.41;5074719;28;20085;-55
2023/09/10 00:20:55;;;;;;;11.65;10.43;;;;;;;19.29;69.05;100974.16;5061679;28;20040;-57
2023/09/10 00:23:22;;;;;;;17.05;10.85;;;;;;;19.24;69.89;100985.25;5067096;28;20049;-59
2023/09/10 00:25:50;;;;;;;15.02;10.48;;;;;;;19.20;70.01;100984.66;5067166;28;20419;-56
2023/09/10 00:28:17;;;;;;;14.43;11.27;;;;;;;19.13;70.69;100975.50;5077089;28;20083;-59
2023/09/10 00:30:51;;;;;;;17.85;11.63;;;;;;;19.12;70.57;100976.50;5078645;28;20082;-57
2023/09/10 00:33:19;;;;;;;14.10;10.65;;;;;;;19.10;70.79;100970.47;5073688;28;20227;-58
2023/09/10 00:35:46;;;;;;;12.95;11.55;;;;;;;19.06;71.06;100970.88;5074856;28;20079;-57
2023/09/10 00:38:13;;;;;;;15.68;11.07;;;;;;;19.04;71.50;100965.66;5052878;28;20082;-58
2023/09/10 00:40:40;;;;;;;16.80;10.80;;;;;;;19.03;71.34;100965.78;5073066;28;20082;-57
2023/09/10 00:43:08;;;;;;;15.82;12.23;;;;;;;19.00;71.67;100966.91;5070824;28;20465;-55
2023/09/10 00:45:35;;;;;;;15.68;9.93;;;;;;;18.98;71.38;100963.53;5070549;28;20087;-57
2023/09/10 00:48:03;;;;;;;15.98;11.45;;;;;;;18.97;71.66;100973.38;5072946;28;20091;-60
2023/09/10 00:50:30;;;;;;;15.10;10.45;;;;;;;18.95;71.86;100972.66;5057471;28;20058;-57
2023/09/10 00:52:59;;;;;;;13.55;11.52;;;;;;;18.92;71.75;100967.59;5066811;28;20123;-59
2023/09/10 00:55:29;;;;;;;13.15;9.68;;;;;;;18.90;72.16;100968.72;5073071;28;20137;-58
2023/09/10 00:57:57;;;;;;;12.23;10.60;;;;;;;18.87;72.33;100966.34;5076320;28;20514;-56
2023/09/10 01:00:26;;;;;;;12.93;11.32;;;;;;;18.83;72.45;100968.41;5075760;28;20581;-56
2023/09/10 01:02:53;;;;;;;12.18;10.60;;;;;;;18.79;72.39;100964.34;5038246;28;20126;-57
2023/09/10 01:05:20;;;;;;;13.38;10.85;;;;;;;18.75;72.86;100965.56;5076503;28;20068;-55
2023/09/10 01:07:48;;;;;;;15.82;11.52;;;;;;;18.72;73.43;100963.16;5067080;28;20143;-61
2023/09/10 01:10:16;;;;;;;14.10;11.50;;;;;;;18.69;73.51;100971.47;5039455;28;20390;-56
2023/09/10 01:12:55;;;;;;;15.27;11.50;;;;;;;18.66;73.72;100972.53;5074695;28;20076;-56
2023/09/10 01:15:32;;;;;;;14.23;10.57;;;;;;;18.63;74.08;100970.13;5075133;28;20109;-58
2023/09/10 01:18:16;;;;;;;12.23;10.10;;;;;;;18.61;74.27;100973.91;5057140;28;20150;-54
2023/09/10 01:21:00;;;;;;;15.63;11.35;;;;;;;18.56;74.71;100982.31;5069205;28;20067;-60
2023/09/10 01:23:43;;;;;;;15.02;10.82;;;;;;;18.52;74.79;100983.56;5073919;28;20135;-57
2023/09/10 01:26:10;;;;;;;13.27;10.65;;;;;;;18.48;74.77;100976.78;5078155;28;20128;-60
2023/09/10 01:28:37;;;;;;;12.20;10.80;;;;;;;18.47;74.97;100986.63;5074747;28;20151;-59
2023/09/10 01:31:05;;;;;;;14.77;11.35;;;;;;;18.45;75.03;100985.06;5073063;28;20076;-58
2023/09/10 01:33:36;;;;;;;17.73;11.95;;;;;;;18.42;75.52;100985.34;5082007;28;20078;-56
2023/09/10 01:36:16;;;;;;;14.23;11.05;;;;;;;18.38;75.64;100981.25;5057397;28;20067;-57
2023/09/10 01:38:49;;;;;;;14.05;11.40;;;;;;;18.34;76.19;100990.47;5054057;28;20131;-56
2023/09/10 01:41:17;;;;;;;12.13;10.85;;;;;;;18.29;75.95;100988.22;5079668;28;20053;-58
2023/09/10 01:43:49;;;;;;;13.20;10.57;;;;;;;18.28;76.18;100983.84;5057115;28;20048;-58
2023/09/10 01:46:16;;;;;;;15.32;11.30;;;;;;;18.28;76.62;100991.84;5083546;28;20159;-56
2023/09/10 01:48:43;;;;;;;16.63;10.48;;;;;;;18.28;76.50;100989.19;5055194;28;20080;-54
2023/09/10 01:51:11;;;;;;;15.15;12.07;;;;;;;18.28;76.94;100993.66;5076363;28;20080;-57
2023/09/10 01:53:38;;;;;;;13.98;10.98;;;;;;;18.26;77.70;100990.28;5072369;28;20098;-54
2023/09/10 01:56:05;;;;;;;14.48;10.95;;;;;;;18.21;77.47;100988.00;5051283;28;20052;-57
2023/09/10 01:58:32;;;;;;;13.75;11.02;;;;;;;18.18;77.61;100989.09;5077163;28;20083;-58
2023/09/10 02:01:00;;;;;;;13.98;10.57;;;;;;;18.15;77.60;100986.72;5077672;28;20145;-59
2023/09/10 02:03:27;;;;;;;15.95;10.95;;;;;;;18.12;77.99;100994.97;5075095;28;20499;-57
2023/09/10 02:05:57;;;;;;;11.88;10.07;;;;;;;18.09;78.31;100995.22;5075308;28;20068;-58
2023/09/10 02:08:24;;;;;;;13.27;11.20;;;;;;;18.07;78.53;100991.84;5069727;28;20053;-60
2023/09/10 02:10:52;;;;;;;12.77;11.32;;;;;;;18.05;79.02;100996.44;5062858;28;20288;-61
2023/09/10 02:13:19;;;;;;;14.60;10.82;;;;;;;18.03;79.05;100990.41;5064841;28;20135;-57
2023/09/10 02:15:46;;;;;;;12.65;11.30;;;;;;;18.02;79.03;100985.22;5074745;28;20087;-59
2023/09/10 02:18:13;;;;;;;12.35;10.93;;;;;;;17.99;78.99;100986.31;5078232;28;20127;-58
2023/09/10 02:20:41;;;;;;;13.88;11.23;;;;;;;17.99;79.53;100985.47;5067014;28;20151;-60
2023/09/10 02:26:00;;;;;;;16.23;10.75;;;;;;;17.93;79.92;100982.34;5064573;28;20076;-59
2023/09/10 02:28:27;;;;;;;18.38;12.50;;;;;;;17.91;79.85;100980.78;5072982;28;20102;-56
2023/09/10 02:30:55;;;;;;;15.70;11.85;;;;;;;17.88;80.12;100979.25;5070948;28;20052;-56
2023/09/10 02:33:23;;;;;;;17.73;11.75;;;;;;;17.84;80.55;100976.97;5079031;28;20041;-55
2023/09/10 02:35:50;;;;;;;16.20;11.85;;;;;;;17.81;80.74;100977.22;5049629;28;20084;-56
2023/09/10 02:38:17;;;;;;;19.50;12.27;;;;;;;17.78;80.96;100977.47;5070819;28;20084;-58
2023/09/10 02:40:45;;;;;;;15.77;12.48;;;;;;;17.76;81.49;100979.41;5070532;28;20091;-57
2023/09/10 02:43:12;;;;;;;17.45;12.43;;;;;;;17.75;81.47;100977.72;5094292;22;20073;-52
2023/09/10 02:45:39;;;;;;;13.95;11.80;;;;;;;17.74;81.48;100981.34;5070402;28;20122;-57
2023/09/10 02:48:07;;;;;;;13.40;11.73;;;;;;;17.72;81.63;100987.63;5058405;28;20147;-54
2023/09/10 02:50:34;;;;;;;15.00;11.05;;;;;;;17.70;81.25;100986.91;5070528;28;20084;-56
2023/09/10 02:53:01;;;;;;;16.30;11.90;;;;;;;17.68;81.94;100991.50;5065721;28;20479;-58
2023/09/10 02:55:29;;;;;;;18.05;11.80;;;;;;;17.66;82.42;100990.81;5048536;28;20089;-57
2023/09/10 02:57:56;;;;;;;18.52;11.90;;;;;;;17.65;82.35;100988.25;5048685;28;20462;-55
2023/09/10 03:00:25;;;;;;;17.00;11.80;;;;;;;17.67;82.43;100991.66;5059977;28;20077;-58
2023/09/10 03:02:56;;;;;;;14.38;12.60;;;;;;;17.64;82.52;100982.09;5054705;28;20049;-55
2023/09/10 03:05:23;;;;;;;15.48;11.55;;;;;;;17.63;82.81;100990.22;5054055;28;20053;-55
2023/09/10 03:07:54;;;;;;;13.95;11.70;;;;;;;17.61;83.62;100982.34;5054197;28;20473;-54
2023/09/10 03:10:22;;;;;;;13.40;11.85;;;;;;;17.58;83.19;100976.44;5046423;28;20094;-57
2023/09/10 03:12:49;;;;;;;14.80;11.48;;;;;;;17.56;83.60;100981.91;5041624;28;20151;-57
2023/09/10 03:15:16;;;;;;;14.35;12.80;;;;;;;17.55;83.62;100971.34;5044952;28;20060;-58
2023/09/10 03:17:43;;;;;;;12.80;10.45;;;;;;;17.54;83.40;100980.31;5046080;28;20080;-58
2023/09/10 03:20:11;;;;;;;14.15;11.80;;;;;;;17.50;83.83;100973.56;5045856;28;20064;-54
2023/09/10 03:22:38;;;;;;;20.95;13.00;;;;;;;17.46;83.71;100976.47;5046057;28;20118;-59
2023/09/10 03:25:06;;;;;;;13.68;12.38;;;;;;;17.44;84.42;100980.22;5051795;28;20083;-57
2023/09/10 03:27:33;;;;;;;15.35;12.25;;;;;;;17.42;84.11;100972.34;5046765;28;20045;-54
2023/09/10 03:30:01;;;;;;;18.33;12.05;;;;;;;17.41;84.93;100972.50;5047792;28;20153;-59
2023/09/10 03:32:29;;;;;;;20.35;12.05;;;;;;;17.39;84.82;100979.78;5044986;28;20075;-53
2023/09/10 03:34:56;;;;;;;16.55;12.45;;;;;;;17.38;85.24;100973.59;5046825;28;20125;-55
2023/09/10 03:37:23;;;;;;;14.23;12.38;;;;;;;17.35;85.61;100971.19;5043666;28;20057;-54
2023/09/10 03:39:50;;;;;;;17.63;13.00;;;;;;;17.34;85.97;100972.16;5056477;28;20542;-56
2023/09/10 03:42:18;;;;;;;15.00;11.77;;;;;;;17.35;85.45;100973.00;5042831;28;20064;-60
2023/09/10 03:44:45;;;;;;;15.73;12.13;;;;;;;17.33;85.28;100961.63;5046733;28;20064;-59
2023/09/10 03:47:12;;;;;;;16.05;12.23;;;;;;;17.30;85.28;100962.75;5051240;28;20147;-55
2023/09/10 03:49:39;;;;;;;15.43;12.18;;;;;;;17.26;86.31;100961.28;5039432;28;20152;-52
2023/09/10 03:52:17;;;;;;;14.15;12.73;;;;;;;17.24;86.72;100959.72;5051295;28;20061;-53
2023/09/10 03:54:44;;;;;;;15.07;13.48;;;;;;;17.20;87.14;100954.66;5037951;28;20148;-55
2023/09/10 03:57:11;;;;;;;20.42;13.77;;;;;;;17.17;87.34;100960.22;5045309;28;20049;-57
2023/09/10 03:59:38;;;;;;;15.55;12.27;;;;;;;17.15;87.10;100959.50;5053627;28;20085;-58
2023/09/10 04:02:06;;;;;;;22.48;12.88;;;;;;;17.15;87.08;100959.50;5048880;28;20549;-52
2023/09/10 04:04:33;;;;;;;14.77;12.85;;;;;;;17.15;87.40;100956.81;5047888;28;20045;-57
2023/09/10 04:07:01;;;;;;;14.85;13.25;;;;;;;17.11;87.96;100957.19;5033197;28;20063;-55
2023/09/10 04:09:29;;;;;;;18.02;13.07;;;;;;;17.08;88.11;100957.47;5043703;28;20095;-59
2023/09/10 04:11:57;;;;;;;14.55;12.35;;;;;;;17.07;88.77;100963.78;5048883;28;20087;-58
2023/09/10 04:14:26;;;;;;;16.63;13.82;;;;;;;17.04;88.70;100962.19;5039408;28;20041;-56
2023/09/10 04:16:53;;;;;;;17.20;13.10;;;;;;;17.03;88.98;100971.16;5048464;28;20112;-53
2023/09/10 04:19:22;;;;;;;16.95;13.65;;;;;;;17.02;89.22;100966.81;5051350;28;20106;-57
2023/09/10 04:21:49;;;;;;;17.15;13.48;;;;;;;17.00;89.10;100970.53;5050094;28;20041;-59
2023/09/10 04:24:16;;;;;;;14.70;12.15;;;;;;;16.99;88.93;100969.69;5046479;28;20049;-53
2023/09/10 04:26:43;;;;;;;14.05;12.55;;;;;;;16.98;88.96;100975.16;5047144;28;20095;-52
2023/09/10 04:29:11;;;;;;;12.93;11.55;;;;;;;16.99;88.63;100976.84;5047427;28;20053;-54
2023/09/10 04:31:42;;;;;;;16.17;13.77;;;;;;;17.00;88.98;100975.84;5056029;28;20080;-55
2023/09/10 04:34:09;;;;;;;16.67;13.30;;;;;;;16.99;89.45;100975.03;5047348;28;20140;-53
2023/09/10 04:36:37;;;;;;;14.25;12.75;;;;;;;16.98;89.38;100975.16;5053561;28;20468;-55
2023/09/10 04:39:08;;;;;;;14.55;12.73;;;;;;;16.97;89.51;100982.25;5059535;28;20080;-51
2023/09/10 04:41:36;;;;;;;14.98;13.23;;;;;;;16.96;89.93;100980.56;5054039;28;20084;-53
2023/09/10 04:44:03;;;;;;;26.05;14.38;;;;;;;16.95;90.94;100984.22;5060835;28;20144;-52
2023/09/10 04:46:31;;;;;;;18.90;14.38;;;;;;;16.94;90.92;100980.72;5058644;28;20102;-57
2023/09/10 04:48:58;;;;;;;19.15;13.52;;;;;;;16.94;91.42;100986.03;5054934;28;20073;-54
2023/09/10 04:51:25;;;;;;;22.40;14.38;;;;;;;16.94;91.27;100986.03;5050318;28;20477;-54
2023/09/10 04:53:52;;;;;;;16.65;14.27;;;;;;;16.97;91.29;100992.91;5060330;28;20505;-60
2023/09/10 04:56:20;;;;;;;16.27;14.10;;;;;;;16.98;92.08;100994.63;5040354;28;20061;-54
2023/09/10 04:58:47;;;;;;;14.68;13.07;;;;;;;16.98;91.30;100983.97;5050299;28;20056;-55
2023/09/10 05:01:14;;;;;;;23.65;15.30;;;;;;;17.02;92.05;100995.19;5060866;28;20099;-51
2023/09/10 05:03:42;;;;;;;21.17;15.45;;;;;;;17.03;93.02;100997.75;5055307;28;20545;-55
2023/09/10 05:06:09;;;;;;;15.88;13.90;;;;;;;17.05;91.94;101002.94;5058971;28;20062;-56
2023/09/10 05:08:36;;;;;;;15.57;13.30;;;;;;;17.08;91.54;101006.19;5052731;28;20140;-53
2023/09/10 05:11:04;;;;;;;15.50;13.88;;;;;;;17.14;91.37;101010.16;5053715;28;20136;-51
2023/09/10 05:13:32;;;;;;;17.70;15.85;;;;;;;17.17;93.30;101013.44;5035476;28;20433;-53
2023/09/10 05:15:59;;;;;;;19.52;15.27;;;;;;;17.19;92.25;101007.97;5060086;28;20052;-55
2023/09/10 05:18:26;;;;;;;19.25;15.13;;;;;;;17.25;91.64;101002.19;5052860;28;20055;-57
2023/09/10 05:20:54;;;;;;;18.20;15.05;;;;;;;17.30;92.09;101015.97;5059291;28;20056;-54
2023/09/10 05:23:22;;;;;;;17.50;14.77;;;;;;;17.33;91.52;101010.38;5046603;28;20056;-55
2023/09/10 05:25:50;;;;;;;21.48;15.55;;;;;;;17.41;90.84;101007.09;5054766;28;20125;-53
2023/09/10 05:28:17;;;;;;;18.15;15.98;;;;;;;17.49;90.98;101012.63;5045784;28;20089;-53
2023/09/10 05:30:44;;;;;;;23.48;16.58;;;;;;;17.54;90.70;101005.13;5047826;28;20133;-55
2023/09/10 05:33:11;;;;;;;19.35;15.57;;;;;;;17.58;90.72;101011.88;5049178;28;20052;-55
2023/09/10 05:35:39;;;;;;;18.15;15.65;;;;;;;17.65;90.07;101006.88;5053589;28;20059;-57
2023/09/10 05:38:06;;;;;;;22.52;15.73;;;;;;;17.74;89.33;101010.63;5049874;28;20475;-53
2023/09/10 05:40:36;;;;;;;18.00;15.07;;;;;;;17.83;88.95;101005.41;5055883;28;20132;-57
2023/09/10 05:43:04;;;;;;;19.95;15.82;;;;;;;17.93;88.57;101011.66;5051203;28;20144;-53
2023/09/10 05:45:33;;;;;;;21.17;15.50;;;;;;;17.98;87.62;101015.75;5046009;28;20143;-56
2023/09/10 05:48:01;;;;;;;17.60;13.98;;;;;;;18.07;87.15;101007.84;5051156;28;20132;-52
2023/09/10 05:50:28;;;;;;;16.48;14.77;;;;;;;18.13;86.49;101015.28;5047714;28;20063;-54
2023/09/10 05:52:56;;;;;;;25.58;14.73;;;;;;;18.20;85.94;101012.97;5057525;28;20103;-53
2023/09/10 05:55:26;;;;;;;17.38;14.40;;;;;;;18.28;85.00;101014.97;5053658;28;20136;-56
2023/09/10 05:57:54;;;;;;;18.70;15.23;;;;;;;18.35;84.20;101017.00;5048848;28;20408;-54
2023/09/10 06:00:22;;;;;;;20.02;15.68;;;;;;;18.45;84.39;101014.38;5055506;28;20140;-53
2023/09/10 06:02:49;;;;;;;21.50;14.55;;;;;;;18.53;83.91;101021.72;5047763;28;20460;-58
2023/09/10 06:05:17;;;;;;;16.33;14.63;;;;;;;18.66;83.40;101017.88;5056093;28;20109;-52
2023/09/10 06:07:44;;;;;;;18.20;15.27;;;;;;;18.74;82.70;101019.91;5057762;28;20059;-54
2023/09/10 06:10:12;;;;;;;15.70;14.02;;;;;;;18.83;82.38;101015.59;5048211;28;20049;-56
2023/09/10 06:12:39;;;;;;;17.70;14.18;;;;;;;18.93;81.82;101017.31;5046188;28;20076;-55
2023/09/10 06:15:07;;;;;;;20.05;14.57;;;;;;;19.03;81.12;101020.00;5048356;28;20132;-58
2023/09/10 06:17:35;;;;;;;18.02;15.00;;;;;;;19.17;80.63;101021.44;5033793;28;20048;-57
2023/09/10 06:20:04;;;;;;;15.40;13.70;;;;;;;19.29;79.90;101022.19;5051667;28;20045;-54
2023/09/10 06:22:32;;;;;;;19.33;13.40;;;;;;;19.41;79.16;101019.28;5050603;28;20057;-49
2023/09/10 06:24:59;;;;;;;16.10;14.40;;;;;;;19.55;78.79;101020.69;5054954;28;20144;-55
2023/09/10 06:27:26;;;;;;;23.48;14.63;;;;;;;19.65;78.20;101023.41;5054161;28;20132;-50
2023/09/10 06:29:53;;;;;;;21.38;15.68;;;;;;;19.70;77.44;101021.16;5045153;28;20076;-52
2023/09/10 06:32:20;;;;;;;15.65;14.05;;;;;;;19.77;77.39;101018.75;5059977;28;20537;-50
2023/09/10 06:34:48;;;;;;;17.15;14.65;;;;;;;19.86;76.40;101020.63;5053785;28;20087;-54
2023/09/10 06:37:15;;;;;;;17.92;14.13;;;;;;;19.94;76.17;101021.56;5054936;28;20518;-52
2023/09/10 06:39:43;;;;;;;16.25;14.60;;;;;;;20.06;75.52;101019.59;5054751;28;20052;-49
2023/09/10 06:42:11;;;;;;;18.77;13.68;;;;;;;20.20;75.07;101029.84;5041088;28;20498;-54
2023/09/10 06:44:42;;;;;;;15.55;13.93;;;;;;;20.32;74.67;101027.03;5037394;28;20478;-52
2023/09/10 06:47:10;;;;;;;17.60;15.63;;;;;;;20.39;73.93;101030.81;5051837;28;20131;-54
2023/09/10 06:49:37;;;;;;;18.58;14.02;;;;;;;20.46;73.65;101030.09;5052959;28;20052;-57
2023/09/10 06:52:09;;;;;;;19.10;14.68;;;;;;;20.59;73.05;101032.50;5047380;28;20148;-55
2023/09/10 06:54:37;;;;;;;17.45;14.60;;;;;;;20.69;72.83;101027.94;5045428;28;20056;-52
2023/09/10 06:57:04;;;;;;;17.05;13.25;;;;;;;20.83;72.48;101031.13;5051138;28;20048;-57
2023/09/10 06:59:31;;;;;;;16.88;14.38;;;;;;;20.93;71.97;101035.44;5033264;28;20049;-55
2023/09/10 07:01:58;;;;;;;17.42;13.80;;;;;;;21.03;71.45;101026.53;5049077;28;20049;-52
2023/09/10 07:04:26;;;;;;;16.67;14.18;;;;;;;21.18;70.92;101033.09;5045716;28;20079;-56
2023/09/10 07:06:54;;;;;;;20.88;15.98;;;;;;;21.19;70.88;101038.28;5044560;28;20072;-56
2023/09/10 07:09:22;;;;;;;17.73;14.90;;;;;;;21.31;70.86;101038.09;5046370;28;20136;-53
2023/09/10 07:11:53;;;;;;;15.63;13.43;;;;;;;21.46;69.67;101036.59;5048424;28;20091;-58
2023/09/10 07:14:21;;;;;;;14.98;12.75;;;;;;;21.60;69.52;101037.91;5042142;28;20132;-61
2023/09/10 07:16:49;;;;;;;17.40;13.77;;;;;;;21.71;69.00;101040.41;5047964;28;20059;-53
2023/09/10 07:19:16;;;;;;;20.08;14.57;;;;;;;21.84;68.13;101045.34;5044184;28;20144;-56
2023/09/10 07:21:43;;;;;;;14.98;13.55;;;;;;;21.98;68.00;101039.47;5047580;28;20084;-52
2023/09/10 07:24:11;;;;;;;17.33;13.73;;;;;;;22.09;67.04;101046.41;5042804;28;20049;-55
2023/09/10 07:26:39;;;;;;;16.27;14.27;;;;;;;22.21;66.67;101043.38;5049315;28;20110;-57
2023/09/10 07:29:06;;;;;;;16.55;13.95;;;;;;;22.36;66.43;101051.69;5042230;28;20072;-56
2023/09/10 07:31:35;;;;;;;15.55;13.20;;;;;;;22.51;66.01;101051.97;5041012;28;20077;-50
2023/09/10 07:34:02;;;;;;;15.18;13.60;;;;;;;22.68;64.85;101051.06;5049622;28;20132;-55
2023/09/10 07:36:30;;;;;;;16.00;12.63;;;;;;;22.84;64.45;101053.00;5044018;28;20140;-53
2023/09/10 07:38:58;;;;;;;14.07;12.00;;;;;;;22.96;63.37;101048.22;5057979;28;20127;-57
2023/09/10 07:41:25;;;;;;;14.88;12.93;;;;;;;23.13;62.57;101058.03;5052807;28;20076;-59
2023/09/10 07:43:52;;;;;;;13.55;12.23;;;;;;;23.27;62.26;101055.75;5059110;28;20139;-57
2023/09/10 07:46:19;;;;;;;17.58;12.55;;;;;;;23.41;61.98;101058.63;5042163;28;20053;-56
2023/09/10 07:48:47;;;;;;;16.23;12.07;;;;;;;23.53;61.35;101050.28;5032363;28;20132;-56
2023/09/10 07:51:14;;;;;;;15.65;12.45;;;;;;;23.64;60.73;101049.94;5045799;28;20630;-56
2023/09/10 07:53:41;;;;;;;13.32;11.95;;;;;;;23.77;60.18;101065.63;5025224;28;20630;-58
2023/09/10 07:56:09;;;;;;;14.18;11.23;;;;;;;23.87;59.22;101059.13;5041216;28;20060;-59
2023/09/10 07:58:37;;;;;;;12.88;11.00;;;;;;;24.00;59.06;101063.97;5032256;28;20049;-56
2023/09/10 08:01:04;;;;;;;14.18;12.43;;;;;;;23.98;56.64;101060.63;5048493;28;20140;-51
2023/09/10 08:03:32;;;;;;;12.07;10.50;;;;;;;24.16;56.66;101057.78;5048967;28;20140;-56
2023/09/10 08:05:59;;;;;;;14.65;10.63;;;;;;;24.32;55.98;101055.09;5042251;28;20148;-57
2023/09/10 08:08:26;;;;;;;13.80;10.93;;;;;;;24.51;55.68;101056.59;5042897;28;20053;-57
2023/09/10 08:10:54;;;;;;;12.02;10.60;;;;;;;24.66;55.17;101060.25;5044292;28;20088;-61
2023/09/10 08:13:21;;;;;;;15.07;10.48;;;;;;;24.83;54.69;101060.25;5049425;28;20131;-55
2023/09/10 08:15:48;;;;;;;12.25;10.57;;;;;;;24.96;54.64;101052.44;5048987;28;20127;-58
2023/09/10 08:18:16;;;;;;;11.32;9.55;;;;;;;25.11;53.57;101057.97;5044420;28;20527;-57
2023/09/10 08:20:44;;;;;;;13.05;10.73;;;;;;;25.20;52.73;101057.75;5045888;28;20525;-57
2023/09/10 08:23:12;;;;;;;12.00;9.60;;;;;;;25.32;52.10;101063.63;5046167;28;20052;-60
2023/09/10 08:25:39;;;;;;;14.68;9.90;;;;;;;25.11;50.79;101061.50;5045800;28;20133;-52
2023/09/10 08:28:06;;;;;;;10.95;9.30;;;;;;;25.30;50.52;101062.09;5048335;28;20052;-53
2023/09/10 08:30:34;;;;;;;12.77;9.82;;;;;;;25.44;51.01;101064.03;5045347;28;20152;-58
2023/09/10 08:33:01;;;;;;;12.07;9.15;;;;;;;25.44;49.85;101062.22;5043065;28;20712;-56
2023/09/10 08:35:48;;;;;;;14.57;9.07;;;;;;;25.54;49.32;101058.44;5043417;28;20107;-58
2023/09/10 08:38:16;;;;;;;10.45;8.15;;;;;;;25.83;48.76;101053.22;5044383;28;20099;-55
2023/09/10 08:41:00;;;;;;;10.27;7.68;;;;;;;26.05;48.09;101051.53;5044830;28;20080;-58
2023/09/10 08:43:55;;;;;;;10.45;8.63;;;;;;;26.19;47.84;101053.44;5029662;28;20057;-58
2023/09/10 08:46:29;;;;;;;9.68;8.43;;;;;;;26.34;47.45;101052.63;5030110;28;20048;-56
2023/09/10 08:48:58;;;;;;;9.60;8.50;;;;;;;26.45;47.30;101053.06;5038760;28;20091;-55
2023/09/10 08:51:28;;;;;;;10.95;7.78;;;;;;;26.57;46.76;101048.06;5041204;28;20053;-57
2023/09/10 08:53:59;;;;;;;9.02;7.40;;;;;;;26.63;46.32;101049.19;5044895;28;20478;-55
2023/09/10 08:56:26;;;;;;;8.60;7.50;;;;;;;26.82;45.59;101037.81;5030335;28;20076;-54
2023/09/10 08:58:55;;;;;;;13.68;8.35;;;;;;;26.98;44.86;101044.91;5032139;28;20136;-58
2023/09/10 09:01:23;;;;;;;13.23;7.95;;;;;;;27.10;44.70;101051.50;5036749;28;20148;-53
2023/09/10 09:03:51;;;;;;;9.95;6.95;;;;;;;27.19;44.04;101041.44;5045879;28;20049;-55
2023/09/10 09:06:18;;;;;;;10.27;7.32;;;;;;;27.29;43.84;101051.94;5041458;28;20053;-56
2023/09/10 09:08:50;;;;;;;23.52;7.45;;;;;;;27.37;43.49;101058.09;5029686;28;20136;-55
2023/09/10 09:11:18;;;;;;;8.98;7.43;;;;;;;27.47;43.20;101053.22;5038519;28;20400;-59
2023/09/10 09:13:49;;;;;;;12.20;6.95;;;;;;;27.56;42.49;101050.38;5010673;28;20065;-59
2023/09/10 09:16:20;;;;;;;12.43;7.40;;;;;;;27.60;41.99;101051.69;5027853;28;20045;-59
2023/09/10 09:18:48;;;;;;;8.82;6.90;;;;;;;27.77;41.61;101050.44;5040073;28;20098;-58
2023/09/10 09:21:24;;;;;;;12.75;7.78;;;;;;;27.92;41.40;101051.22;5026064;28;20061;-51
2023/09/10 09:23:56;;;;;;;10.02;7.15;;;;;;;28.03;41.26;101044.44;5041807;28;20240;-55
2023/09/10 09:26:24;;;;;;;10.40;7.03;;;;;;;28.00;39.13;101052.94;5025981;28;20052;-56
2023/09/10 09:28:52;;;;;;;9.13;7.07;;;;;;;28.10;40.37;101048.06;5045105;28;20040;-56
2023/09/10 09:31:21;;;;;;;8.30;7.28;;;;;;;28.22;39.93;101051.06;5027783;28;20053;-55
2023/09/10 09:33:49;;;;;;;9.60;7.05;;;;;;;28.29;40.61;101045.72;5043873;28;20100;-54
2023/09/10 09:36:16;;;;;;;10.27;7.80;;;;;;;28.35;40.69;101051.19;5042033;28;20442;-57
2023/09/10 09:38:45;;;;;;;9.00;8.00;;;;;;;28.49;40.18;101052.13;5027667;28;20053;-59
2023/09/10 09:41:16;;;;;;;9.52;7.35;;;;;;;28.56;40.27;101049.47;5040991;28;20127;-55
2023/09/10 09:43:44;;;;;;;7.40;6.57;;;;;;;28.64;39.78;101049.31;5029604;28;20371;-53
2023/09/10 09:46:11;;;;;;;8.10;6.13;;;;;;;28.71;39.33;101044.78;5043739;28;20418;-56
2023/09/10 09:48:39;;;;;;;8.77;6.55;;;;;;;28.75;39.03;101046.88;5035981;28;20135;-52
2023/09/10 09:51:07;;;;;;;15.27;7.30;;;;;;;28.80;38.52;101045.44;5039262;28;20143;-52
2023/09/10 09:53:35;;;;;;;7.00;6.07;;;;;;;28.94;38.33;101044.47;5038950;28;20151;-60
2023/09/10 09:56:04;;;;;;;5.97;5.38;;;;;;;29.10;38.25;101038.75;5037233;28;20048;-54
2023/09/10 09:58:33;;;;;;;14.23;6.45;;;;;;;29.01;36.87;101048.09;5044505;28;20143;-58
2023/09/10 10:01:00;;;;;;;11.52;5.78;;;;;;;29.18;35.31;101046.72;5035272;28;20112;-60
2023/09/10 10:03:33;;;;;;;9.57;5.40;;;;;;;29.32;35.24;101049.50;5081569;22;20048;-60
2023/09/10 10:06:01;;;;;;;7.10;6.10;;;;;;;29.43;35.15;101038.88;5079181;28;20462;-60
2023/09/10 10:08:30;;;;;;;6.47;5.88;;;;;;;29.46;35.74;101043.91;5082674;28;20064;-60
2023/09/10 10:10:57;;;;;;;6.50;5.88;;;;;;;29.45;35.05;101036.81;5078487;28;20143;-60
2023/09/10 10:13:26;;;;;;;14.55;6.43;;;;;;;29.23;34.42;101038.00;5075962;28;20421;-59
2023/09/10 10:15:54;;;;;;;6.68;5.85;;;;;;;29.42;33.82;101030.94;5076749;28;20045;-59
2023/09/10 10:18:23;;;;;;;7.22;6.10;;;;;;;29.46;34.18;101040.34;5077911;28;20135;-59
2023/09/10 10:20:52;;;;;;;6.10;5.50;;;;;;;29.56;35.25;101024.53;5079737;28;20583;-58
2023/09/10 10:23:20;;;;;;;7.82;6.47;;;;;;;29.63;35.03;101030.84;5082146;28;20588;-60
2023/09/10 10:26:07;;;;;;;6.57;5.93;;;;;;;29.75;35.66;101023.72;5080049;28;20051;-58
2023/09/10 10:28:35;;;;;;;9.30;6.00;;;;;;;29.84;35.26;101026.25;5058449;28;20062;-60
2023/09/10 10:31:15;;;;;;;6.82;5.72;;;;;;;30.01;34.66;101019.38;5079488;28;20052;-60
2023/09/10 10:33:50;;;;;;;6.95;6.18;;;;;;;30.15;34.12;101018.34;5077187;28;20054;-60
2023/09/10 10:36:23;;;;;;;8.43;5.65;;;;;;;30.11;33.15;101022.50;5061147;28;20607;-61
2023/09/10 10:38:54;;;;;;;6.13;4.95;;;;;;;30.16;32.20;101021.91;5061986;28;20044;-58
2023/09/10 10:41:25;;;;;;;5.50;5.00;;;;;;;30.21;31.52;101022.94;5080935;28;20131;-59
2023/09/10 10:44:06;;;;;;;7.03;4.82;;;;;;;30.16;31.44;101011.03;5078097;28;20052;-59
2023/09/10 10:46:36;;;;;;;6.95;4.78;;;;;;;30.36;31.53;101020.03;5075054;28;20075;-60
2023/09/10 10:49:05;;;;;;;6.10;4.93;;;;;;;30.38;30.46;101019.81;5080118;28;20621;-60
2023/09/10 10:51:37;;;;;;;7.07;5.03;;;;;;;30.44;30.38;101021.66;5061751;28;20187;-56
2023/09/10 10:54:22;;;;;;;6.68;5.57;;;;;;;30.60;30.32;101018.50;5078690;28;20133;-61
2023/09/10 10:56:50;;;;;;;5.78;5.18;;;;;;;30.74;31.04;101011.19;5080117;28;20513;-61
2023/09/10 10:59:18;;;;;;;9.30;5.43;;;;;;;30.86;30.42;101020.34;5075804;28;20106;-61
2023/09/10 11:02:35;;;;;;;9.00;5.15;;;;;;;31.11;30.52;101009.56;5077142;28;20086;-59
2023/09/10 11:05:04;;;;;;;7.53;4.82;;;;;;;31.32;29.93;101013.06;5074579;28;20570;-59
2023/09/10 11:07:33;;;;;;;8.90;5.32;;;;;;;31.24;29.52;101005.94;5078212;28;20127;-59
2023/09/10 11:10:27;;;;;;;7.18;5.10;;;;;;;31.21;29.57;101006.41;5077032;28;20132;-61
2023/09/10 11:13:07;;;;;;;6.57;4.63;;;;;;;31.56;29.48;101012.28;5074644;28;20136;-59
2023/09/10 11:15:34;;;;;;;7.68;4.93;;;;;;;31.61;29.21;101007.03;5061055;28;20097;-62
2023/09/10 11:18:35;;;;;;;5.63;5.13;;;;;;;31.83;29.45;101006.69;5074120;28;20175;-58
2023/09/10 11:21:03;;;;;;;7.93;4.97;;;;;;;32.03;29.24;101011.97;5074166;28;20084;-60
2023/09/10 11:23:35;;;;;;;6.10;4.95;;;;;;;32.19;28.91;101006.78;5076154;28;20043;-59